Warwick, Rhode Island
Current Conditions -  °F | °C
As of 9:51 AM on Thursday 23 Oct 2014 (Local Time) from KPVD Reporting Station
Overcast Overcast  
Wind Chill: 54°   Ceiling: 1500
Heat Index: 54°   Visibility: 10mi
Dew Point: 48°   Wind: 22mph
Humidity: 80%   Direction: 10°N
Pressure: 29.62"   Gusts: 30mph
Location:  41.7°N, 71.46°W
Report Text: KPVD 231351Z 01019G26KT 10SM OVC015 12/09 A2962 RMK AO2 PK WND 01029/1330 SLP029 T01220089
Loading
Personal Weather Stations






























Interactive Weather Map
Tropical Storm Tracking
New forecast layout! Learn more

10-Day Weather Forecast

Advertisements
Track Severe Weather on mobile